Time;durP1;ratioP1;P1;durP2;ratioP2;P2;SDS_P1;SDS_P2;PMS_P1;PMS_P2;Temp;Humidity;BMP_temperature;BMP_pressure;BME280_temperature;BME280_humidity;BME280_pressure;Samples;Min_cycle;Max_cycle;Signal;HPM_P1;HPM_P2
2023/08/28 00:02:10;;;;;;;7.47;4.72;;;15.50;92.60;;;;;;5118749;28;20092;-83
2023/08/28 00:04:36;;;;;;;7.38;4.85;;;15.60;92.70;;;;;;5084966;28;20047;-83
2023/08/28 00:07:01;;;;;;;5.75;4.15;;;15.50;92.80;;;;;;5118576;28;20027;-83
2023/08/28 00:09:27;;;;;;;9.85;4.88;;;15.50;92.90;;;;;;5136565;28;20038;-82
2023/08/28 00:11:54;;;;;;;9.25;4.78;;;15.50;93.10;;;;;;5101605;28;20020;-83
2023/08/28 00:14:20;;;;;;;7.28;4.15;;;15.50;93.20;;;;;;5085191;28;20362;-83
2023/08/28 00:16:46;;;;;;;10.80;4.80;;;15.60;93.20;;;;;;5118460;28;20028;-83
2023/08/28 00:19:12;;;;;;;7.03;4.97;;;15.60;93.20;;;;;;5118295;28;20031;-83
2023/08/28 00:21:37;;;;;;;8.07;4.78;;;15.70;93.20;;;;;;5101444;28;20016;-81
2023/08/28 00:24:04;;;;;;;5.80;4.63;;;15.80;93.10;;;;;;5101425;28;20028;-83
2023/08/28 00:26:30;;;;;;;6.18;4.40;;;15.80;93.00;;;;;;5101198;28;20023;-83
2023/08/28 00:28:56;;;;;;;5.70;4.53;;;15.80;93.00;;;;;;5101390;28;20053;-83
2023/08/28 00:31:22;;;;;;;7.45;4.85;;;15.70;93.00;;;;;;5101161;28;20042;-83
2023/08/28 00:33:48;;;;;;;8.07;4.50;;;15.80;93.00;;;;;;5117824;28;20027;-83
2023/08/28 00:36:13;;;;;;;4.45;3.75;;;15.80;92.90;;;;;;5084422;28;20049;-83
2023/08/28 00:38:39;;;;;;;6.40;4.47;;;15.80;92.90;;;;;;5084251;28;20051;-82
2023/08/28 00:41:05;;;;;;;7.25;4.72;;;15.80;92.80;;;;;;5117846;28;20046;-83
2023/08/28 00:43:30;;;;;;;7.82;4.63;;;15.70;92.80;;;;;;5083792;28;20044;-83
2023/08/28 00:45:56;;;;;;;6.30;4.63;;;15.70;92.80;;;;;;5084151;28;20020;-83
2023/08/28 00:48:22;;;;;;;5.05;4.10;;;15.70;92.80;;;;;;5084175;28;20466;-83
2023/08/28 00:50:49;;;;;;;6.35;4.68;;;15.70;92.80;;;;;;5117662;28;20042;-82
2023/08/28 00:53:15;;;;;;;6.97;4.47;;;15.70;92.80;;;;;;5100845;28;20028;-82
2023/08/28 00:55:42;;;;;;;7.00;4.45;;;15.70;92.80;;;;;;5117553;28;20026;-83
2023/08/28 00:58:08;;;;;;;6.00;4.95;;;15.70;92.80;;;;;;5117474;28;20023;-82
2023/08/28 01:00:34;;;;;;;5.90;4.65;;;15.60;92.80;;;;;;5135430;28;20031;-83
2023/08/28 01:03:00;;;;;;;6.57;4.35;;;15.60;92.80;;;;;;5100556;28;20477;-82
2023/08/28 01:05:44;;;;;;;6.93;4.53;;;15.60;92.90;;;;;;5116937;28;20015;-82
2023/08/28 01:08:44;;;;;;;5.90;4.30;;;15.60;92.90;;;;;;5135562;28;20102;-82
2023/08/28 01:12:00;;;;;;;8.85;4.95;;;15.50;92.80;;;;;;5016419;28;20022;-82
2023/08/28 01:14:28;;;;;;;8.40;4.95;;;15.50;92.90;;;;;;5083627;28;20502;-82
2023/08/28 01:17:03;;;;;;;6.50;4.55;;;15.40;92.90;;;;;;5117212;28;20016;-82
2023/08/28 01:19:33;;;;;;;7.40;4.43;;;15.40;93.00;;;;;;5117125;28;20023;-83
2023/08/28 01:22:16;;;;;;;5.68;4.60;;;15.40;93.00;;;;;;5135106;28;20016;-83
2023/08/28 01:24:49;;;;;;;6.47;4.63;;;15.50;93.10;;;;;;5116987;28;20095;-82
2023/08/28 01:27:16;;;;;;;7.75;4.78;;;15.40;93.00;;;;;;5117046;28;20024;-82
2023/08/28 01:29:42;;;;;;;6.18;4.50;;;15.40;93.00;;;;;;5100101;28;20016;-82
2023/08/28 01:32:07;;;;;;;6.93;4.85;;;15.30;93.00;;;;;;5135014;28;20107;-82
2023/08/28 01:34:34;;;;;;;8.57;5.07;;;15.20;93.10;;;;;;5116838;28;20050;-82
2023/08/28 01:37:10;;;;;;;5.93;4.40;;;15.30;93.20;;;;;;5116768;28;20035;-81
2023/08/28 01:39:42;;;;;;;7.60;4.95;;;15.30;93.30;;;;;;5116726;28;20051;-82
2023/08/28 01:42:09;;;;;;;6.43;4.85;;;15.30;93.30;;;;;;5134674;28;20104;-82
2023/08/28 01:44:36;;;;;;;7.32;4.95;;;15.40;93.20;;;;;;5099733;28;20024;-83
2023/08/28 01:47:02;;;;;;;8.40;4.70;;;15.30;93.10;;;;;;5082992;28;20024;-83
2023/08/28 01:49:29;;;;;;;8.98;4.97;;;15.40;93.20;;;;;;5083146;28;20117;-82
2023/08/28 01:51:55;;;;;;;7.18;4.53;;;15.40;93.30;;;;;;5116782;28;20039;-82
2023/08/28 01:54:22;;;;;;;7.95;5.47;;;15.40;93.20;;;;;;5116512;28;20053;-83
2023/08/28 01:56:48;;;;;;;6.40;4.40;;;15.40;93.10;;;;;;5099671;28;20027;-83
2023/08/28 01:59:14;;;;;;;8.18;4.90;;;15.30;93.10;;;;;;5083010;28;20046;-83
2023/08/28 02:01:40;;;;;;;7.82;4.57;;;15.20;93.00;;;;;;5099790;28;20044;-83
2023/08/28 02:04:06;;;;;;;6.95;4.80;;;15.10;93.00;;;;;;5116324;28;20069;-82
2023/08/28 02:06:31;;;;;;;6.55;5.22;;;15.20;93.00;;;;;;5099407;28;20047;-83
2023/08/28 02:08:57;;;;;;;9.70;5.50;;;15.10;93.00;;;;;;5099589;28;20028;-82
2023/08/28 02:11:23;;;;;;;7.70;5.38;;;15.10;93.00;;;;;;5099883;28;20032;-83
2023/08/28 02:13:48;;;;;;;7.57;5.05;;;15.10;93.10;;;;;;5099424;28;20046;-83
2023/08/28 02:16:16;;;;;;;7.55;5.28;;;15.10;93.20;;;;;;5098597;28;20039;-83
2023/08/28 02:18:42;;;;;;;7.82;5.50;;;15.10;93.20;;;;;;5099787;28;20043;-83
2023/08/28 02:21:07;;;;;;;6.95;4.97;;;15.10;93.10;;;;;;5116216;28;20027;-83
2023/08/28 02:23:33;;;;;;;6.55;5.20;;;15.10;93.20;;;;;;5116331;28;20027;-81
2023/08/28 02:25:59;;;;;;;9.57;5.70;;;15.10;93.10;;;;;;5082554;28;20019;-82
2023/08/28 02:28:25;;;;;;;6.93;5.53;;;15.00;93.00;;;;;;5116259;28;20027;-82
2023/08/28 02:30:50;;;;;;;7.82;5.28;;;15.00;93.20;;;;;;5134049;28;20057;-82
2023/08/28 02:33:16;;;;;;;9.40;5.65;;;15.10;93.20;;;;;;5134151;28;20016;-82
2023/08/28 02:35:42;;;;;;;7.93;5.40;;;15.00;93.20;;;;;;5133990;28;20106;-80
2023/08/28 02:38:10;;;;;;;7.43;5.18;;;15.00;93.20;;;;;;5099353;28;20098;-83
2023/08/28 02:40:37;;;;;;;7.10;5.10;;;14.90;93.30;;;;;;5116202;28;20053;-82
2023/08/28 02:43:06;;;;;;;6.80;5.35;;;14.90;93.30;;;;;;5115766;28;20071;-83
2023/08/28 02:45:38;;;;;;;7.75;5.28;;;14.90;93.40;;;;;;5133909;28;20027;-82
2023/08/28 02:48:04;;;;;;;7.75;5.30;;;14.90;93.50;;;;;;5115858;28;20047;-82
2023/08/28 02:50:31;;;;;;;8.55;5.38;;;14.90;93.50;;;;;;5133820;28;20024;-82
2023/08/28 02:52:56;;;;;;;6.97;5.20;;;14.90;93.50;;;;;;5099127;28;20085;-82
2023/08/28 02:55:22;;;;;;;9.45;5.68;;;14.80;93.50;;;;;;5133896;28;20083;-82
2023/08/28 02:57:48;;;;;;;8.38;5.65;;;14.80;93.50;;;;;;5115923;28;20038;-83
2023/08/28 03:00:14;;;;;;;9.48;5.43;;;14.80;93.60;;;;;;5082307;28;20024;-82
2023/08/28 03:02:40;;;;;;;8.50;5.70;;;14.80;93.60;;;;;;5082255;28;20023;-82
2023/08/28 03:05:06;;;;;;;10.68;5.95;;;14.90;93.70;;;;;;5099105;28;20038;-82
2023/08/28 03:07:31;;;;;;;8.85;5.68;;;14.80;93.70;;;;;;5098735;28;20016;-82
2023/08/28 03:09:57;;;;;;;12.77;6.15;;;14.90;93.70;;;;;;5082111;28;20031;-83
2023/08/28 03:12:23;;;;;;;9.65;5.68;;;14.90;93.70;;;;;;5098914;28;20024;-83
2023/08/28 03:14:48;;;;;;;8.38;5.85;;;14.90;93.60;;;;;;5098921;28;20028;-83
2023/08/28 03:17:14;;;;;;;7.85;5.53;;;14.80;93.50;;;;;;5115806;28;20035;-82
2023/08/28 03:19:40;;;;;;;7.80;5.72;;;14.80;93.60;;;;;;5115606;28;20023;-82
2023/08/28 03:22:06;;;;;;;8.15;5.47;;;14.80;93.60;;;;;;5098769;28;20030;-81
2023/08/28 03:24:31;;;;;;;8.48;5.57;;;14.80;93.70;;;;;;5115544;28;20024;-83
2023/08/28 03:26:57;;;;;;;8.50;5.78;;;14.80;93.70;;;;;;5115533;28;20028;-83
2023/08/28 03:29:23;;;;;;;8.57;6.40;;;14.90;93.70;;;;;;5101805;28;20429;-83
2023/08/28 03:31:49;;;;;;;8.90;5.85;;;14.90;93.50;;;;;;5119453;28;20059;-83
2023/08/28 03:34:15;;;;;;;9.32;6.53;;;14.90;93.60;;;;;;5118950;28;20035;-83
2023/08/28 03:36:41;;;;;;;9.40;6.07;;;14.90;93.60;;;;;;5119529;28;20032;-83
2023/08/28 03:39:07;;;;;;;8.32;6.25;;;14.90;93.60;;;;;;5102278;28;20095;-83
2023/08/28 03:41:33;;;;;;;9.32;6.65;;;14.80;93.60;;;;;;5119214;28;20027;-83
2023/08/28 03:43:58;;;;;;;9.20;5.78;;;14.80;93.70;;;;;;5085317;28;20043;-83
2023/08/28 03:46:24;;;;;;;8.70;6.00;;;14.80;93.70;;;;;;5118859;28;20043;-82
2023/08/28 03:48:50;;;;;;;9.50;6.43;;;14.80;93.60;;;;;;5101938;28;20035;-82
2023/08/28 03:51:15;;;;;;;8.77;6.50;;;14.70;93.70;;;;;;5118869;28;20024;-82
2023/08/28 03:53:41;;;;;;;8.40;5.85;;;14.70;93.70;;;;;;5085133;28;20055;-82
2023/08/28 03:56:07;;;;;;;10.00;6.13;;;14.70;93.70;;;;;;5118852;28;20027;-82
2023/08/28 03:58:33;;;;;;;9.73;5.85;;;14.70;93.70;;;;;;5136697;28;20038;-82
2023/08/28 04:00:58;;;;;;;8.38;6.68;;;14.70;93.60;;;;;;5136703;28;20030;-82
2023/08/28 04:03:25;;;;;;;9.43;6.53;;;14.60;93.70;;;;;;5136732;28;20027;-82
2023/08/28 04:05:52;;;;;;;9.80;6.43;;;14.60;93.70;;;;;;5085320;28;20023;-83
2023/08/28 04:08:19;;;;;;;10.18;6.25;;;14.60;93.80;;;;;;5085436;28;20039;-83
2023/08/28 04:10:44;;;;;;;9.85;6.93;;;14.60;94.00;;;;;;5118812;28;20008;-83
2023/08/28 04:13:11;;;;;;;10.20;5.65;;;14.60;94.00;;;;;;5118661;28;20023;-83
2023/08/28 04:15:37;;;;;;;8.23;5.90;;;14.60;93.90;;;;;;5118436;28;20023;-82
2023/08/28 04:18:04;;;;;;;9.77;6.20;;;14.50;94.10;;;;;;5101480;28;20031;-83
2023/08/28 04:20:30;;;;;;;8.75;6.50;;;14.60;94.20;;;;;;5084844;28;20024;-83
2023/08/28 04:22:56;;;;;;;10.75;6.68;;;14.60;94.20;;;;;;5118380;28;20031;-83
2023/08/28 04:25:21;;;;;;;8.23;6.10;;;14.60;94.10;;;;;;5118307;28;20091;-83
2023/08/28 04:27:47;;;;;;;11.27;6.32;;;14.60;94.10;;;;;;5118196;28;20028;-82
2023/08/28 04:30:13;;;;;;;10.07;6.65;;;14.50;94.20;;;;;;5136183;28;20056;-82
2023/08/28 04:32:39;;;;;;;9.95;6.07;;;14.40;94.20;;;;;;5136125;28;20073;-83
2023/08/28 04:35:06;;;;;;;9.73;6.28;;;14.30;94.40;;;;;;5136075;28;20205;-82
2023/08/28 04:37:32;;;;;;;10.18;7.05;;;14.30;94.60;;;;;;5101243;28;20030;-81
2023/08/28 04:39:58;;;;;;;10.73;6.43;;;14.30;94.70;;;;;;5100194;28;20027;-82
2023/08/28 04:42:24;;;;;;;10.35;6.55;;;14.30;94.70;;;;;;5114426;28;20052;-82
2023/08/28 04:44:50;;;;;;;9.43;6.57;;;14.40;94.70;;;;;;5115431;28;20024;-82
2023/08/28 04:47:15;;;;;;;10.48;6.82;;;14.40;94.60;;;;;;5097481;28;20027;-82
2023/08/28 04:49:41;;;;;;;9.85;5.75;;;14.50;94.70;;;;;;5097529;28;20030;-83
2023/08/28 04:52:07;;;;;;;9.45;6.15;;;14.60;94.60;;;;;;5114405;28;20051;-83
2023/08/28 04:54:33;;;;;;;8.55;6.35;;;14.60;94.50;;;;;;5097283;28;20024;-83
2023/08/28 04:56:59;;;;;;;8.68;6.32;;;14.70;94.30;;;;;;5115196;28;20024;-83
2023/08/28 04:59:25;;;;;;;9.82;6.30;;;14.70;94.70;;;;;;5114024;28;20031;-83
2023/08/28 05:01:51;;;;;;;12.02;6.50;;;14.70;94.20;;;;;;5096920;28;20024;-83
2023/08/28 05:04:17;;;;;;;11.00;6.18;;;14.80;94.20;;;;;;5114004;28;20028;-83
2023/08/28 05:06:42;;;;;;;9.20;6.00;;;14.70;94.10;;;;;;5115100;28;20034;-83
2023/08/28 05:09:08;;;;;;;9.48;6.28;;;14.70;94.10;;;;;;5097024;28;20046;-83
2023/08/28 05:11:33;;;;;;;10.45;6.13;;;14.70;94.50;;;;;;5080325;28;20045;-83
2023/08/28 05:13:59;;;;;;;8.50;6.38;;;14.60;94.10;;;;;;5097140;28;20028;-83
2023/08/28 05:16:25;;;;;;;10.88;6.65;;;14.60;94.20;;;;;;5097012;28;20054;-82
2023/08/28 05:18:50;;;;;;;9.30;6.40;;;14.60;94.20;;;;;;5096790;28;20033;-82
2023/08/28 05:21:16;;;;;;;10.55;6.40;;;14.60;94.30;;;;;;5113804;28;20028;-83
2023/08/28 05:23:42;;;;;;;11.27;6.57;;;14.60;94.40;;;;;;5113810;28;20036;-83
2023/08/28 05:26:07;;;;;;;9.75;6.55;;;14.60;94.40;;;;;;5114568;28;20020;-83
2023/08/28 05:28:35;;;;;;;10.88;6.90;;;14.60;94.50;;;;;;5113589;28;20082;-81
2023/08/28 05:31:04;;;;;;;10.18;6.63;;;14.60;94.60;;;;;;5096868;28;20028;-80
2023/08/28 05:33:36;;;;;;;9.35;6.43;;;14.60;94.70;;;;;;5096545;28;20031;-81
2023/08/28 05:36:01;;;;;;;10.80;6.90;;;14.60;94.70;;;;;;5113450;28;20039;-82
2023/08/28 05:38:27;;;;;;;13.13;6.90;;;14.50;94.90;;;;;;5113522;28;20035;-83
2023/08/28 05:40:52;;;;;;;12.18;6.93;;;14.50;94.90;;;;;;5113450;28;20107;-83
2023/08/28 05:43:18;;;;;;;10.18;7.05;;;14.50;95.10;;;;;;5096189;28;20052;-83
2023/08/28 05:45:46;;;;;;;13.65;7.47;;;14.50;95.10;;;;;;5096127;28;20024;-84
2023/08/28 05:48:11;;;;;;;10.23;6.78;;;14.60;95.50;;;;;;5114370;28;20024;-82
2023/08/28 05:50:39;;;;;;;10.25;7.10;;;14.70;95.10;;;;;;5096154;28;20035;-82
2023/08/28 05:53:06;;;;;;;13.85;7.80;;;14.70;95.00;;;;;;5114240;28;20016;-82
2023/08/28 05:55:32;;;;;;;12.63;7.68;;;14.70;95.10;;;;;;5113208;28;20024;-82
2023/08/28 05:57:57;;;;;;;12.55;8.02;;;14.80;95.10;;;;;;5113094;28;20024;-82
2023/08/28 06:00:23;;;;;;;10.13;7.47;;;14.80;95.10;;;;;;5096210;28;20035;-82
2023/08/28 06:02:49;;;;;;;11.43;7.95;;;14.90;95.10;;;;;;5113027;28;20020;-81
2023/08/28 06:05:14;;;;;;;12.32;7.57;;;14.90;95.10;;;;;;5096282;28;20028;-90
2023/08/28 06:07:40;;;;;;;13.75;8.50;;;14.90;95.20;;;;;;5113813;28;20034;-81
2023/08/28 06:10:07;;;;;;;13.82;8.07;;;15.00;95.20;;;;;;5095855;28;20030;-80
2023/08/28 06:12:34;;;;;;;11.95;7.85;;;15.00;95.20;;;;;;5112811;28;20092;-81
2023/08/28 06:14:59;;;;;;;11.57;7.85;;;15.10;95.20;;;;;;5113837;28;20024;-80
2023/08/28 06:17:25;;;;;;;14.85;9.18;;;15.10;95.30;;;;;;5095930;28;20024;-80
2023/08/28 06:19:50;;;;;;;12.75;8.48;;;15.10;95.30;;;;;;5095951;28;20028;-81
2023/08/28 06:22:16;;;;;;;13.75;8.88;;;15.20;95.40;;;;;;5095863;28;20028;-80
2023/08/28 06:24:42;;;;;;;15.70;9.80;;;15.20;95.30;;;;;;5079094;28;20051;-81
2023/08/28 06:27:08;;;;;;;14.90;9.18;;;15.20;95.40;;;;;;5112667;28;20016;-80
2023/08/28 06:29:33;;;;;;;16.17;9.15;;;15.30;95.50;;;;;;5113356;28;20080;-81
2023/08/28 06:31:59;;;;;;;14.35;8.88;;;15.30;95.60;;;;;;5095876;28;20028;-82
2023/08/28 06:34:25;;;;;;;15.05;9.05;;;15.30;95.70;;;;;;5095694;28;20024;-83
2023/08/28 06:36:51;;;;;;;15.68;9.43;;;15.40;96.10;;;;;;5112576;28;20020;-81
2023/08/28 06:39:18;;;;;;;16.08;9.93;;;15.40;96.00;;;;;;5113635;28;20020;-81
2023/08/28 06:41:44;;;;;;;13.63;10.05;;;15.40;96.00;;;;;;5112660;28;20031;-81
2023/08/28 06:44:09;;;;;;;16.85;10.18;;;15.50;96.00;;;;;;5132802;28;20043;-82
2023/08/28 06:46:36;;;;;;;16.83;10.68;;;15.50;96.00;;;;;;5099101;28;20050;-83
2023/08/28 06:49:02;;;;;;;15.32;10.60;;;15.60;96.10;;;;;;5099111;28;20118;-81
2023/08/28 06:51:28;;;;;;;14.73;10.65;;;15.60;96.10;;;;;;5099295;28;20020;-81
2023/08/28 06:53:54;;;;;;;15.75;10.43;;;15.70;96.20;;;;;;5098902;28;20028;-80
2023/08/28 06:56:20;;;;;;;15.80;10.48;;;15.70;96.10;;;;;;5098905;28;20099;-80
2023/08/28 06:58:45;;;;;;;15.65;10.15;;;15.80;96.10;;;;;;5115972;28;20032;-79
2023/08/28 07:01:11;;;;;;;16.45;10.57;;;15.80;96.10;;;;;;5098846;28;20020;-80
2023/08/28 07:03:37;;;;;;;17.25;10.13;;;15.90;96.20;;;;;;5118155;28;20031;-82
2023/08/28 07:06:02;;;;;;;17.73;10.60;;;16.00;96.10;;;;;;5102734;28;20016;-81
2023/08/28 07:08:28;;;;;;;16.52;10.95;;;16.00;96.10;;;;;;5102715;28;20529;-81
2023/08/28 07:10:56;;;;;;;13.38;10.32;;;16.00;96.30;;;;;;5119700;28;20029;-81
2023/08/28 07:13:21;;;;;;;15.32;11.20;;;16.10;96.20;;;;;;5119714;28;20038;-80
2023/08/28 07:15:47;;;;;;;16.27;11.48;;;16.20;96.30;;;;;;5102525;28;20028;-81
2023/08/28 07:18:14;;;;;;;17.70;11.77;;;16.20;96.60;;;;;;5137701;28;20123;-81
2023/08/28 07:20:39;;;;;;;18.48;11.85;;;16.30;96.70;;;;;;5119436;28;20032;-80
2023/08/28 07:23:05;;;;;;;16.85;10.85;;;16.30;96.70;;;;;;5102464;28;20028;-80
2023/08/28 07:25:31;;;;;;;15.55;11.40;;;16.40;96.60;;;;;;5102346;28;20035;-81
2023/08/28 07:27:57;;;;;;;15.63;10.98;;;16.50;96.50;;;;;;5119315;28;20023;-80
2023/08/28 07:30:22;;;;;;;17.80;10.93;;;16.50;96.40;;;;;;5102432;28;20024;-80
2023/08/28 07:32:48;;;;;;;15.40;9.70;;;16.60;96.30;;;;;;5137357;28;20077;-80
2023/08/28 07:35:14;;;;;;;14.05;9.77;;;16.70;96.30;;;;;;5085342;28;20096;-81
2023/08/28 07:37:40;;;;;;;15.50;10.73;;;16.70;96.20;;;;;;5102123;28;20043;-82
2023/08/28 07:40:06;;;;;;;16.25;10.60;;;16.80;96.30;;;;;;5119070;28;20023;-80
2023/08/28 07:42:35;;;;;;;15.35;11.35;;;16.80;96.30;;;;;;5118493;28;20042;-81
2023/08/28 07:45:01;;;;;;;16.48;11.27;;;16.90;96.30;;;;;;5118896;28;20027;-81
2023/08/28 07:47:27;;;;;;;20.50;13.23;;;17.00;96.10;;;;;;5102143;28;20050;-81
2023/08/28 07:49:53;;;;;;;19.25;13.63;;;17.00;96.20;;;;;;5118975;28;20032;-81
2023/08/28 07:52:19;;;;;;;18.23;11.52;;;17.10;96.10;;;;;;5102174;28;20355;-83
2023/08/28 07:54:45;;;;;;;16.00;10.63;;;17.10;96.10;;;;;;5118705;28;20034;-82
2023/08/28 07:57:11;;;;;;;16.45;11.27;;;17.20;96.10;;;;;;5118768;28;20034;-83
2023/08/28 07:59:37;;;;;;;20.50;12.70;;;17.20;96.30;;;;;;5118756;28;20057;-82
2023/08/28 08:02:06;;;;;;;16.58;12.05;;;17.20;96.40;;;;;;5118714;28;20042;-81
2023/08/28 08:04:32;;;;;;;15.57;11.55;;;17.30;96.20;;;;;;5118748;28;20012;-81
2023/08/28 08:06:58;;;;;;;15.35;10.73;;;17.20;96.30;;;;;;5118597;28;20028;-82
2023/08/28 08:09:24;;;;;;;13.32;10.32;;;17.30;96.40;;;;;;5101639;28;20024;-82
2023/08/28 08:11:50;;;;;;;18.40;11.68;;;17.30;96.30;;;;;;5118398;28;20027;-81
2023/08/28 08:14:16;;;;;;;17.02;10.43;;;17.40;96.20;;;;;;5117283;28;20030;-81
2023/08/28 08:16:41;;;;;;;15.00;10.13;;;17.50;96.00;;;;;;5101559;28;20063;-80
2023/08/28 08:19:07;;;;;;;12.40;8.80;;;17.60;95.90;;;;;;5101268;28;20054;-81
2023/08/28 08:21:32;;;;;;;10.73;8.30;;;17.70;95.60;;;;;;5118403;28;20027;-81
2023/08/28 08:23:58;;;;;;;10.88;6.72;;;17.80;95.50;;;;;;5084563;28;20028;-81
2023/08/28 08:26:24;;;;;;;10.23;6.95;;;17.80;95.30;;;;;;5101445;28;20020;-83
2023/08/28 08:28:49;;;;;;;7.70;5.43;;;17.90;95.10;;;;;;5118536;28;20091;-84
2023/08/28 08:31:15;;;;;;;8.13;5.60;;;17.90;95.00;;;;;;5118498;28;20030;-83
2023/08/28 08:33:41;;;;;;;10.45;7.00;;;17.90;94.90;;;;;;5101198;28;20041;-83
2023/08/28 08:36:06;;;;;;;8.50;6.43;;;17.90;94.70;;;;;;5084501;28;20023;-84
2023/08/28 08:38:32;;;;;;;5.75;3.85;;;18.00;94.60;;;;;;5118017;28;20043;-83
2023/08/28 08:40:58;;;;;;;6.05;4.53;;;18.10;94.40;;;;;;5101100;28;20116;-83
2023/08/28 08:43:25;;;;;;;5.80;4.47;;;18.10;94.20;;;;;;5100722;28;20052;-83
2023/08/28 08:45:58;;;;;;;6.80;4.50;;;18.20;94.10;;;;;;5118102;28;20038;-83
2023/08/28 08:48:25;;;;;;;6.68;4.88;;;18.20;94.00;;;;;;5117809;28;20024;-81
2023/08/28 08:50:54;;;;;;;8.82;5.40;;;18.20;93.90;;;;;;5117615;28;20031;-81
2023/08/28 08:53:47;;;;;;;6.90;5.00;;;18.20;93.10;;;;;;5118316;28;20095;-79
2023/08/28 08:56:17;;;;;;;6.70;4.65;;;18.20;93.20;;;;;;5134877;28;20103;-81
2023/08/28 08:58:43;;;;;;;5.05;3.88;;;18.30;93.60;;;;;;5100484;28;20119;-82
2023/08/28 09:01:10;;;;;;;4.32;3.10;;;18.40;93.60;;;;;;5117466;28;20030;-81
2023/08/28 09:03:38;;;;;;;4.22;3.20;;;18.60;93.40;;;;;;5100627;28;20036;-81
2023/08/28 09:06:06;;;;;;;5.57;2.50;;;18.70;92.90;;;;;;5117364;28;20464;-80
2023/08/28 09:08:40;;;;;;;3.35;2.20;;;18.70;92.60;;;;;;5135277;28;20027;-80
2023/08/28 09:11:06;;;;;;;4.10;2.50;;;18.80;91.60;;;;;;5135340;28;20035;-80
2023/08/28 09:13:33;;;;;;;6.22;2.97;;;18.90;92.20;;;;;;5117410;28;20409;-81
2023/08/28 09:15:58;;;;;;;4.63;3.10;;;19.00;92.30;;;;;;5135254;28;20011;-81
2023/08/28 09:18:27;;;;;;;5.72;3.20;;;19.20;92.30;;;;;;5117118;28;20020;-81
2023/08/28 09:21:10;;;;;;;4.07;3.03;;;19.40;92.20;;;;;;5100557;28;20031;-81
2023/08/28 09:23:47;;;;;;;4.65;2.90;;;19.50;92.00;;;;;;5100577;28;20027;-83
2023/08/28 09:26:14;;;;;;;4.35;2.38;;;19.60;91.80;;;;;;5116678;28;20020;-81
2023/08/28 09:28:40;;;;;;;4.18;2.72;;;19.60;91.20;;;;;;5117117;28;20026;-83
2023/08/28 09:31:06;;;;;;;5.47;2.45;;;19.60;91.00;;;;;;5135108;28;20016;-82
2023/08/28 09:33:44;;;;;;;3.30;2.60;;;19.60;91.00;;;;;;5116985;28;20073;-83
2023/08/28 09:36:18;;;;;;;2.88;2.50;;;19.60;90.90;;;;;;5100224;28;20030;-81
2023/08/28 09:38:44;;;;;;;4.47;2.80;;;19.60;90.80;;;;;;5116667;28;20024;-81
2023/08/28 09:41:10;;;;;;;3.20;2.08;;;19.50;90.80;;;;;;5116987;28;20024;-80
2023/08/28 09:43:36;;;;;;;1.90;1.48;;;19.50;90.70;;;;;;5134481;28;20035;-81
2023/08/28 09:46:04;;;;;;;2.35;1.63;;;19.50;90.60;;;;;;5134772;28;20079;-81
2023/08/28 09:48:34;;;;;;;2.80;1.58;;;19.50;90.30;;;;;;5099697;28;20033;-81
2023/08/28 09:51:06;;;;;;;2.55;1.88;;;19.50;90.20;;;;;;5116590;28;20028;-81
2023/08/28 09:53:32;;;;;;;2.78;2.08;;;19.60;90.10;;;;;;5116667;28;20027;-80
2023/08/28 09:55:58;;;;;;;2.45;1.92;;;19.60;88.80;;;;;;5116517;28;20028;-80
2023/08/28 09:58:26;;;;;;;3.30;1.98;;;19.50;88.30;;;;;;5116273;28;20031;-82
2023/08/28 10:00:53;;;;;;;1.80;1.60;;;19.60;88.40;;;;;;5099534;28;20020;-81
2023/08/28 10:03:21;;;;;;;3.90;2.10;;;19.60;88.50;;;;;;5116623;28;20033;-81
2023/08/28 10:05:47;;;;;;;2.53;2.00;;;19.70;88.90;;;;;;5134336;28;20099;-80
2023/08/28 10:08:16;;;;;;;2.65;2.33;;;19.70;88.90;;;;;;5116396;28;20039;-80
2023/08/28 10:10:47;;;;;;;4.85;2.65;;;19.70;88.90;;;;;;5134311;28;20023;-80
2023/08/28 10:13:21;;;;;;;3.33;2.42;;;19.70;89.50;;;;;;5116329;28;20023;-83
2023/08/28 10:15:53;;;;;;;4.28;2.60;;;19.70;89.70;;;;;;5134701;28;20027;-84
2023/08/28 10:18:34;;;;;;;4.80;2.80;;;19.70;89.50;;;;;;5116452;28;20083;-82
2023/08/28 10:21:00;;;;;;;6.53;3.10;;;19.60;89.30;;;;;;5116140;28;20051;-82
2023/08/28 10:23:28;;;;;;;5.85;3.25;;;19.60;89.60;;;;;;5116263;28;20024;-82
2023/08/28 10:25:55;;;;;;;3.13;2.30;;;19.60;89.70;;;;;;5134121;28;20047;-81
2023/08/28 10:28:22;;;;;;;3.50;2.55;;;19.60;89.90;;;;;;5134146;28;20022;-81
2023/08/28 10:30:52;;;;;;;3.53;2.35;;;19.50;90.00;;;;;;5099163;28;20027;-81
2023/08/28 10:33:21;;;;;;;3.80;2.60;;;19.50;90.10;;;;;;5099256;28;20068;-81
2023/08/28 10:35:52;;;;;;;3.92;2.60;;;19.60;90.20;;;;;;5115874;28;20126;-82
2023/08/28 10:38:21;;;;;;;4.00;2.13;;;19.60;90.20;;;;;;5100948;28;20123;-81
2023/08/28 10:40:50;;;;;;;3.00;2.20;;;19.50;90.00;;;;;;5120174;28;20024;-81
2023/08/28 10:43:21;;;;;;;3.85;2.80;;;19.50;89.90;;;;;;5138012;28;20044;-82
2023/08/28 10:45:49;;;;;;;3.63;2.43;;;19.50;89.80;;;;;;5120282;28;20023;-82
2023/08/28 10:48:18;;;;;;;5.78;3.55;;;19.50;90.00;;;;;;5120136;28;20020;-82
2023/08/28 10:50:44;;;;;;;4.82;4.07;;;19.50;90.20;;;;;;5138180;28;20024;-82
2023/08/28 10:53:14;;;;;;;5.65;4.18;;;19.50;90.40;;;;;;5138131;28;20028;-82
2023/08/28 10:55:52;;;;;;;5.60;4.20;;;19.50;90.60;;;;;;5102861;28;20028;-82
2023/08/28 10:58:17;;;;;;;8.02;3.88;;;19.60;90.70;;;;;;5120197;28;20024;-82
2023/08/28 11:00:43;;;;;;;8.27;4.22;;;19.60;90.70;;;;;;5102810;28;20057;-82
2023/08/28 11:03:17;;;;;;;6.35;4.28;;;19.60;90.70;;;;;;5102894;28;20026;-83
2023/08/28 11:05:44;;;;;;;6.00;5.18;;;19.60;90.80;;;;;;5120641;28;20027;-82
2023/08/28 11:08:11;;;;;;;8.70;5.10;;;19.60;91.00;;;;;;5119725;28;20083;-82
2023/08/28 11:10:45;;;;;;;7.30;4.88;;;19.60;91.00;;;;;;5119496;28;20016;-82
2023/08/28 11:13:21;;;;;;;5.72;4.50;;;19.70;90.80;;;;;;5103250;28;20047;-82
2023/08/28 11:15:48;;;;;;;5.55;4.03;;;19.70;90.50;;;;;;5119432;28;20019;-82
2023/08/28 11:18:27;;;;;;;6.43;4.30;;;19.70;90.70;;;;;;5102832;28;20032;-82
2023/08/28 11:20:54;;;;;;;6.70;4.28;;;19.80;90.80;;;;;;5137334;28;20024;-83
2023/08/28 11:23:37;;;;;;;5.60;4.00;;;19.80;90.10;;;;;;5137547;28;20046;-83
2023/08/28 11:26:18;;;;;;;5.00;4.25;;;19.80;90.40;;;;;;5119337;28;20054;-83
2023/08/28 11:28:45;;;;;;;5.15;4.40;;;19.90;90.40;;;;;;5119448;28;20020;-83
2023/08/28 11:31:12;;;;;;;6.85;4.70;;;19.80;90.00;;;;;;5137187;28;20019;-83
2023/08/28 11:33:41;;;;;;;6.80;4.30;;;19.80;90.20;;;;;;5119279;28;20073;-83
2023/08/28 11:36:08;;;;;;;5.55;3.80;;;19.80;90.30;;;;;;5119245;28;20024;-82
2023/08/28 11:38:35;;;;;;;6.70;3.92;;;19.80;90.10;;;;;;5119249;28;20547;-83
2023/08/28 11:41:08;;;;;;;5.15;3.88;;;19.90;90.10;;;;;;5119084;28;20032;-83
2023/08/28 11:43:40;;;;;;;4.35;3.63;;;19.90;90.10;;;;;;5118896;28;20529;-83
2023/08/28 11:46:06;;;;;;;5.22;3.60;;;20.00;90.00;;;;;;5137381;28;20080;-83
2023/08/28 11:48:36;;;;;;;4.93;3.08;;;20.00;89.90;;;;;;5136836;28;20099;-82
2023/08/28 11:51:03;;;;;;;4.10;2.70;;;20.10;87.90;;;;;;5102021;28;20028;-82
2023/08/28 11:53:36;;;;;;;3.65;2.75;;;20.10;86.90;;;;;;5118913;28;20035;-83
2023/08/28 11:56:03;;;;;;;4.95;3.15;;;20.00;84.70;;;;;;5136975;28;20497;-82
2023/08/28 11:58:33;;;;;;;4.55;3.10;;;20.00;85.80;;;;;;5118871;28;20019;-82
2023/08/28 12:01:07;;;;;;;4.18;3.20;;;20.10;86.80;;;;;;5118740;28;20043;-81
2023/08/28 12:03:36;;;;;;;3.53;2.85;;;20.20;87.80;;;;;;5118694;28;20027;-81
2023/08/28 12:06:06;;;;;;;4.10;3.30;;;20.30;87.00;;;;;;5136688;28;20024;-82
2023/08/28 12:08:33;;;;;;;4.43;3.80;;;20.30;86.40;;;;;;5118566;28;20075;-82
2023/08/28 12:11:00;;;;;;;4.18;3.15;;;20.20;86.70;;;;;;5118552;28;20027;-81
2023/08/28 12:13:25;;;;;;;3.70;3.35;;;20.30;85.70;;;;;;5101774;28;20039;-82
2023/08/28 12:15:51;;;;;;;5.18;3.15;;;20.30;86.40;;;;;;5118673;28;20114;-82
2023/08/28 12:18:17;;;;;;;3.33;2.72;;;20.40;86.60;;;;;;5118640;28;20028;-83
2023/08/28 12:20:43;;;;;;;3.17;2.88;;;20.60;86.50;;;;;;5084720;28;20032;-83
2023/08/28 12:23:11;;;;;;;5.53;3.88;;;20.70;85.30;;;;;;5118567;28;20039;-82
2023/08/28 12:25:40;;;;;;;7.72;4.57;;;20.70;84.00;;;;;;5101199;28;20118;-82
2023/08/28 12:28:10;;;;;;;6.15;4.15;;;20.60;83.30;;;;;;5101523;28;20020;-82
2023/08/28 12:30:40;;;;;;;7.00;4.78;;;20.50;84.10;;;;;;5101302;28;20027;-82
2023/08/28 12:33:07;;;;;;;7.07;5.88;;;20.50;84.30;;;;;;5085172;28;20023;-82
2023/08/28 12:35:40;;;;;;;7.15;6.10;;;20.50;86.30;;;;;;5118141;28;20087;-82
2023/08/28 12:38:07;;;;;;;5.38;4.70;;;20.50;86.10;;;;;;5136190;28;20028;-82
2023/08/28 12:40:36;;;;;;;7.97;6.03;;;20.60;86.50;;;;;;5117925;28;20035;-82
2023/08/28 12:43:08;;;;;;;5.85;5.25;;;20.70;86.80;;;;;;5100855;28;20043;-82
2023/08/28 12:45:34;;;;;;;6.82;5.68;;;20.70;86.80;;;;;;5118018;28;20035;-82